Time;durP1;ratioP1;P1;durP2;ratioP2;P2;SDS_P1;SDS_P2;PMS_P1;PMS_P2;Temp;Humidity;BMP_temperature;BMP_pressure;BME280_temperature;BME280_humidity;BME280_pressure;Samples;Min_cycle;Max_cycle;Signal;HPM_P1;HPM_P2
2023/09/08 00:01:58;;;;;;;11.40;9.07;;;19.10;99.90;;;;;;5056032;28;20040;-65
2023/09/08 00:04:24;;;;;;;12.68;9.23;;;19.10;99.90;;;;;;5073850;28;20106;-64
2023/09/08 00:06:49;;;;;;;11.13;9.40;;;19.00;99.90;;;;;;5055854;28;20072;-64
2023/09/08 00:09:16;;;;;;;10.98;8.65;;;18.90;99.90;;;;;;5039607;28;20072;-65
2023/09/08 00:11:42;;;;;;;12.18;9.82;;;18.80;99.90;;;;;;5039376;28;20101;-64
2023/09/08 00:14:08;;;;;;;12.38;9.70;;;18.80;99.90;;;;;;5072435;28;20040;-64
2023/09/08 00:16:34;;;;;;;11.55;9.63;;;18.70;99.90;;;;;;5055612;28;20060;-64
2023/09/08 00:18:59;;;;;;;10.88;9.40;;;18.60;99.90;;;;;;5038924;28;20420;-65
2023/09/08 00:21:26;;;;;;;11.32;8.90;;;18.60;99.90;;;;;;5055611;28;20113;-64
2023/09/08 00:23:52;;;;;;;12.73;8.73;;;18.50;99.90;;;;;;5055492;28;20053;-65
2023/09/08 00:26:18;;;;;;;10.77;8.52;;;18.40;99.90;;;;;;5073269;28;20169;-64
2023/09/08 00:28:44;;;;;;;10.45;8.30;;;18.40;99.90;;;;;;5038902;28;20097;-64
2023/09/08 00:31:09;;;;;;;12.05;9.55;;;18.30;99.90;;;;;;5038833;28;20443;-65
2023/09/08 00:33:35;;;;;;;9.98;7.43;;;18.30;99.90;;;;;;5055404;28;20051;-64
2023/09/08 00:36:01;;;;;;;9.88;7.57;;;18.40;99.90;;;;;;5039018;28;20051;-64
2023/09/08 00:38:27;;;;;;;11.10;8.38;;;18.40;99.90;;;;;;5038749;28;20048;-64
2023/09/08 00:40:56;;;;;;;11.70;8.10;;;18.40;99.90;;;;;;5055383;28;20048;-65
2023/09/08 00:43:22;;;;;;;11.02;8.70;;;18.40;99.90;;;;;;5055158;28;20139;-64
2023/09/08 00:45:48;;;;;;;9.90;7.88;;;18.40;99.90;;;;;;5055443;28;20143;-64
2023/09/08 00:48:17;;;;;;;8.93;6.90;;;18.40;99.90;;;;;;5073232;28;20044;-65
2023/09/08 00:50:43;;;;;;;9.43;6.95;;;18.40;99.90;;;;;;5039134;28;20098;-64
2023/09/08 00:53:09;;;;;;;8.82;6.57;;;18.40;99.90;;;;;;5055450;28;20038;-65
2023/09/08 00:55:35;;;;;;;10.23;7.20;;;18.40;99.90;;;;;;5072148;28;20052;-64
2023/09/08 00:58:03;;;;;;;8.60;7.13;;;18.40;99.90;;;;;;5055276;28;20036;-64
2023/09/08 01:00:28;;;;;;;9.70;8.40;;;18.50;99.90;;;;;;5055590;28;20449;-65
2023/09/08 01:02:55;;;;;;;9.57;8.57;;;18.50;99.90;;;;;;5055093;28;20071;-64
2023/09/08 01:05:21;;;;;;;12.57;9.52;;;18.40;99.90;;;;;;5055261;28;20040;-65
2023/09/08 01:07:48;;;;;;;10.73;9.02;;;18.40;99.90;;;;;;5054926;28;20049;-65
2023/09/08 01:10:15;;;;;;;13.23;11.13;;;18.30;99.90;;;;;;5055050;28;20127;-65
2023/09/08 01:12:41;;;;;;;9.13;7.10;;;18.30;99.90;;;;;;5038681;28;20503;-64
2023/09/08 01:15:07;;;;;;;11.35;8.05;;;18.30;99.90;;;;;;5054949;28;20049;-65
2023/09/08 01:17:36;;;;;;;9.85;7.88;;;18.30;99.90;;;;;;5038766;28;20492;-65
2023/09/08 01:20:11;;;;;;;9.52;7.47;;;18.30;99.90;;;;;;5054848;28;20041;-72
2023/09/08 01:22:55;;;;;;;13.88;11.30;;;18.30;99.90;;;;;;5073096;28;20053;-72
2023/09/08 01:25:26;;;;;;;14.02;10.05;;;18.20;99.90;;;;;;5055199;28;20079;-73
2023/09/08 01:27:54;;;;;;;9.27;7.20;;;18.20;99.90;;;;;;5055018;28;20068;-72
2023/09/08 01:30:22;;;;;;;10.35;7.20;;;18.10;99.90;;;;;;5055022;28;20356;-72
2023/09/08 01:32:50;;;;;;;9.88;7.97;;;18.10;99.90;;;;;;5055156;28;20373;-72
2023/09/08 01:35:16;;;;;;;11.20;10.00;;;18.10;99.90;;;;;;5055093;28;20052;-72
2023/09/08 01:37:46;;;;;;;9.88;7.60;;;18.00;99.90;;;;;;5038601;28;20048;-74
2023/09/08 01:40:13;;;;;;;13.02;11.35;;;18.00;99.90;;;;;;5055119;28;20048;-72
2023/09/08 01:42:39;;;;;;;13.38;10.10;;;18.00;99.90;;;;;;5055621;28;20099;-73
2023/09/08 01:45:05;;;;;;;10.13;7.53;;;18.00;99.90;;;;;;5058975;28;20046;-74
2023/09/08 01:47:37;;;;;;;10.27;9.20;;;17.90;99.90;;;;;;5058583;28;20132;-74
2023/09/08 01:50:04;;;;;;;12.45;9.50;;;17.90;99.90;;;;;;5075686;28;20040;-74
2023/09/08 01:52:30;;;;;;;9.23;8.23;;;17.90;99.90;;;;;;5058817;28;20474;-73
2023/09/08 01:54:55;;;;;;;13.95;11.73;;;17.80;99.90;;;;;;5058540;28;20127;-72
2023/09/08 01:57:21;;;;;;;12.75;10.85;;;17.70;99.90;;;;;;5058623;28;20109;-72
2023/09/08 01:59:48;;;;;;;11.55;9.38;;;17.50;99.90;;;;;;5058694;28;20109;-72
2023/09/08 02:02:14;;;;;;;11.63;10.00;;;17.40;99.90;;;;;;5076315;28;20158;-72
2023/09/08 02:04:39;;;;;;;9.45;7.57;;;17.30;99.90;;;;;;5058250;28;20051;-72
2023/09/08 02:07:05;;;;;;;8.93;6.85;;;17.30;99.90;;;;;;5058335;28;20040;-72
2023/09/08 02:09:36;;;;;;;8.95;7.30;;;17.40;99.90;;;;;;5058432;28;20040;-73
2023/09/08 02:12:02;;;;;;;7.97;6.93;;;17.40;99.90;;;;;;5058349;28;20098;-71
2023/09/08 02:14:28;;;;;;;8.10;6.97;;;17.50;99.90;;;;;;5058110;28;20037;-71
2023/09/08 02:16:55;;;;;;;9.32;7.47;;;17.40;99.90;;;;;;5058197;28;20128;-71
2023/09/08 02:19:21;;;;;;;10.35;8.50;;;17.50;99.90;;;;;;5058623;28;20040;-71
2023/09/08 02:21:46;;;;;;;8.43;6.45;;;17.50;99.90;;;;;;5076046;28;20046;-73
2023/09/08 02:24:12;;;;;;;9.07;7.68;;;17.50;99.90;;;;;;5058366;28;20045;-72
2023/09/08 02:26:39;;;;;;;9.45;8.00;;;17.50;99.90;;;;;;5076220;28;20047;-73
2023/09/08 02:29:05;;;;;;;9.77;7.53;;;17.50;99.90;;;;;;5058056;28;20045;-71
2023/09/08 02:31:31;;;;;;;9.18;7.00;;;17.50;99.90;;;;;;5057872;28;20047;-64
2023/09/08 02:33:56;;;;;;;10.95;8.90;;;17.50;99.90;;;;;;5040975;28;20036;-63
2023/09/08 02:36:26;;;;;;;8.30;7.00;;;17.50;99.90;;;;;;5057813;28;20041;-64
2023/09/08 02:38:56;;;;;;;9.20;7.00;;;17.50;99.90;;;;;;5057370;28;20052;-64
2023/09/08 02:41:22;;;;;;;11.27;9.15;;;17.50;99.90;;;;;;5057442;28;20052;-64
2023/09/08 02:43:48;;;;;;;9.20;7.63;;;17.50;99.90;;;;;;5057379;28;20052;-65
2023/09/08 02:46:15;;;;;;;13.63;11.40;;;17.40;99.90;;;;;;5057294;28;20044;-64
2023/09/08 02:48:41;;;;;;;9.73;7.43;;;17.20;99.90;;;;;;5057272;28;20036;-64
2023/09/08 02:51:06;;;;;;;11.15;9.90;;;17.20;99.90;;;;;;5057569;28;20047;-64
2023/09/08 02:53:32;;;;;;;11.55;9.57;;;17.20;99.90;;;;;;5075089;28;20037;-63
2023/09/08 02:55:59;;;;;;;9.23;7.35;;;17.10;99.90;;;;;;5056338;28;20044;-65
2023/09/08 02:58:26;;;;;;;13.43;10.13;;;17.00;99.90;;;;;;5057402;28;20396;-65
2023/09/08 03:00:52;;;;;;;10.00;7.95;;;17.00;99.90;;;;;;5075060;28;20119;-65
2023/09/08 03:03:19;;;;;;;10.35;8.50;;;17.00;99.90;;;;;;5056810;28;20496;-64
2023/09/08 03:05:45;;;;;;;9.88;8.07;;;17.00;99.90;;;;;;5057067;28;20048;-65
2023/09/08 03:08:11;;;;;;;8.93;7.47;;;17.00;99.90;;;;;;5040652;28;20387;-65
2023/09/08 03:10:37;;;;;;;10.98;9.43;;;17.00;99.90;;;;;;5073630;28;20127;-65
2023/09/08 03:13:03;;;;;;;9.35;7.60;;;16.90;99.90;;;;;;5057114;28;20028;-65
2023/09/08 03:15:29;;;;;;;11.65;9.15;;;16.90;99.90;;;;;;5057030;28;20484;-65
2023/09/08 03:17:55;;;;;;;12.50;10.85;;;17.00;99.90;;;;;;5057081;28;20120;-65
2023/09/08 03:20:21;;;;;;;10.60;8.38;;;17.00;99.90;;;;;;5056741;28;20043;-65
2023/09/08 03:22:47;;;;;;;9.18;8.05;;;16.90;99.90;;;;;;5056957;28;20044;-65
2023/09/08 03:25:16;;;;;;;8.80;7.60;;;16.90;99.90;;;;;;5056860;28;20115;-65
2023/09/08 03:27:42;;;;;;;9.85;7.22;;;16.90;99.90;;;;;;5056807;28;20083;-65
2023/09/08 03:30:08;;;;;;;9.00;7.78;;;16.90;99.90;;;;;;5039918;28;20075;-65
2023/09/08 03:32:34;;;;;;;9.23;7.28;;;16.90;99.90;;;;;;5056569;28;20040;-65
2023/09/08 03:35:00;;;;;;;9.40;7.70;;;16.90;99.90;;;;;;5040149;28;20051;-64
2023/09/08 03:37:28;;;;;;;9.23;7.47;;;16.90;99.90;;;;;;5056358;28;20043;-65
2023/09/08 03:39:54;;;;;;;10.65;7.88;;;16.90;99.90;;;;;;5056425;28;20059;-74
2023/09/08 03:42:20;;;;;;;13.20;10.93;;;16.90;99.90;;;;;;5056567;28;20484;-74
2023/09/08 03:44:45;;;;;;;9.57;8.05;;;16.90;99.90;;;;;;5040122;28;20033;-72
2023/09/08 03:47:11;;;;;;;10.82;9.13;;;16.90;99.90;;;;;;5056781;28;20110;-72
2023/09/08 03:49:37;;;;;;;11.65;10.07;;;16.90;99.90;;;;;;5056553;28;20089;-72
2023/09/08 03:52:03;;;;;;;11.90;10.15;;;16.90;99.90;;;;;;5039813;28;20041;-72
2023/09/08 03:54:29;;;;;;;13.15;10.38;;;16.80;99.90;;;;;;5056263;28;20041;-72
2023/09/08 03:56:54;;;;;;;12.95;11.43;;;16.80;99.90;;;;;;5056318;28;20040;-72
2023/09/08 03:59:20;;;;;;;13.40;12.00;;;16.70;99.90;;;;;;5056802;28;20064;-73
2023/09/08 04:01:46;;;;;;;13.65;12.15;;;16.60;99.90;;;;;;5039870;28;20480;-71
2023/09/08 04:04:12;;;;;;;13.55;12.15;;;16.60;99.90;;;;;;5056418;28;20041;-72
2023/09/08 04:06:37;;;;;;;14.45;12.90;;;16.50;99.90;;;;;;5039632;28;20090;-72
2023/09/08 04:09:03;;;;;;;16.17;12.82;;;16.50;99.90;;;;;;5056129;28;20090;-71
2023/09/08 04:11:29;;;;;;;13.75;12.32;;;16.40;99.90;;;;;;5039642;28;20123;-73
2023/09/08 04:13:55;;;;;;;15.40;12.82;;;16.40;99.90;;;;;;5039294;28;20039;-73
2023/09/08 04:16:20;;;;;;;17.38;13.27;;;16.40;99.90;;;;;;5039286;28;20040;-73
2023/09/08 04:18:46;;;;;;;14.70;13.20;;;16.50;99.90;;;;;;5039333;28;20033;-73
2023/09/08 04:21:12;;;;;;;14.75;13.25;;;16.50;99.90;;;;;;5039349;28;20040;-73
2023/09/08 04:23:38;;;;;;;14.80;13.27;;;16.40;99.90;;;;;;5055725;28;20048;-71
2023/09/08 04:26:04;;;;;;;15.30;13.68;;;16.40;99.90;;;;;;5039115;28;20480;-74
2023/09/08 04:28:30;;;;;;;16.35;14.55;;;16.50;99.90;;;;;;5039189;28;20051;-73
2023/09/08 04:30:59;;;;;;;15.88;14.32;;;16.50;99.90;;;;;;5055763;28;20040;-72
2023/09/08 04:33:24;;;;;;;15.48;13.88;;;16.50;99.90;;;;;;5039833;28;20040;-72
2023/09/08 04:35:50;;;;;;;15.95;13.90;;;16.50;99.90;;;;;;5055850;28;20040;-73
2023/09/08 04:38:19;;;;;;;16.05;14.35;;;16.40;99.90;;;;;;5071034;28;20087;-73
2023/09/08 04:40:48;;;;;;;15.05;13.55;;;16.40;99.90;;;;;;5055452;28;20107;-73
2023/09/08 04:43:14;;;;;;;15.38;13.77;;;16.40;99.90;;;;;;5055552;28;20055;-72
2023/09/08 04:45:39;;;;;;;15.27;13.68;;;16.40;99.90;;;;;;5055594;28;20040;-73
2023/09/08 04:48:05;;;;;;;16.48;13.93;;;16.40;99.90;;;;;;5073272;28;20036;-74
2023/09/08 04:50:34;;;;;;;15.27;13.57;;;16.40;99.90;;;;;;5055155;28;20117;-74
2023/09/08 04:53:04;;;;;;;14.63;12.77;;;16.40;99.90;;;;;;5022897;28;20400;-73
2023/09/08 04:55:30;;;;;;;17.90;14.20;;;16.30;99.90;;;;;;5055417;28;20057;-73
2023/09/08 04:57:55;;;;;;;17.33;13.38;;;16.30;99.90;;;;;;5055078;28;20041;-73
2023/09/08 05:00:21;;;;;;;15.20;13.60;;;16.30;99.90;;;;;;5038716;28;20072;-65
2023/09/08 05:02:47;;;;;;;14.93;13.25;;;16.30;99.90;;;;;;5055372;28;20049;-64
2023/09/08 05:05:13;;;;;;;15.15;13.50;;;16.30;99.90;;;;;;5054969;28;20049;-65
2023/09/08 05:07:39;;;;;;;14.68;12.52;;;16.30;99.90;;;;;;5072891;28;20048;-64
2023/09/08 05:10:05;;;;;;;15.18;12.38;;;16.30;99.90;;;;;;5054965;28;20049;-65
2023/09/08 05:12:31;;;;;;;15.38;12.73;;;16.30;99.90;;;;;;5054969;28;20054;-65
2023/09/08 05:15:00;;;;;;;15.05;13.07;;;16.30;99.90;;;;;;5054908;28;20485;-63
2023/09/08 05:17:28;;;;;;;15.27;13.65;;;16.30;99.90;;;;;;5040421;28;20116;-63
2023/09/08 05:19:54;;;;;;;15.73;13.48;;;16.40;99.90;;;;;;5042812;28;20064;-64
2023/09/08 05:22:20;;;;;;;14.93;13.18;;;16.30;99.90;;;;;;5042680;28;20059;-65
2023/09/08 05:24:46;;;;;;;14.95;13.45;;;16.30;99.90;;;;;;5025907;28;20071;-64
2023/09/08 05:27:12;;;;;;;14.32;12.65;;;16.40;99.90;;;;;;5026144;28;20079;-64
2023/09/08 05:29:37;;;;;;;16.88;13.73;;;16.30;99.90;;;;;;5042602;28;20089;-63
2023/09/08 05:32:03;;;;;;;14.25;12.80;;;16.30;99.90;;;;;;5059005;28;20041;-64
2023/09/08 05:34:29;;;;;;;15.18;13.57;;;16.30;99.90;;;;;;5076917;28;20083;-64
2023/09/08 05:36:55;;;;;;;15.10;13.32;;;16.20;99.90;;;;;;5025742;28;20550;-65
2023/09/08 05:39:21;;;;;;;15.10;13.50;;;16.20;99.90;;;;;;5055251;28;20047;-65
2023/09/08 05:41:47;;;;;;;15.23;13.73;;;16.20;99.90;;;;;;5038813;28;20504;-65
2023/09/08 05:44:13;;;;;;;16.98;13.63;;;16.20;99.90;;;;;;5038732;28;20055;-65
2023/09/08 05:46:38;;;;;;;15.43;13.75;;;16.20;99.90;;;;;;5055172;28;20037;-63
2023/09/08 05:49:04;;;;;;;16.30;14.13;;;16.30;99.90;;;;;;5055401;28;20485;-65
2023/09/08 05:51:31;;;;;;;15.20;13.60;;;16.30;99.90;;;;;;5055381;28;20037;-64
2023/09/08 05:53:56;;;;;;;15.80;14.13;;;16.30;99.90;;;;;;5055215;28;20037;-64
2023/09/08 05:56:29;;;;;;;15.75;13.93;;;16.30;99.90;;;;;;5055119;28;20068;-64
2023/09/08 05:58:55;;;;;;;14.88;13.40;;;16.40;99.90;;;;;;5054980;28;20049;-64
2023/09/08 06:01:21;;;;;;;16.42;14.27;;;16.50;99.90;;;;;;5054855;28;20052;-64
2023/09/08 06:03:47;;;;;;;16.42;14.73;;;16.50;99.90;;;;;;5054917;28;20045;-63
2023/09/08 06:06:13;;;;;;;15.77;14.05;;;16.50;99.90;;;;;;5055077;28;20041;-64
2023/09/08 06:08:38;;;;;;;18.70;15.05;;;16.50;99.90;;;;;;5055184;28;20045;-64
2023/09/08 06:11:04;;;;;;;16.30;14.70;;;16.60;99.90;;;;;;5057751;28;20048;-71
2023/09/08 06:13:30;;;;;;;15.63;14.02;;;17.00;99.90;;;;;;5059454;28;20041;-74
2023/09/08 06:15:56;;;;;;;15.00;13.40;;;17.30;99.90;;;;;;5059398;28;20449;-71
2023/09/08 06:18:22;;;;;;;16.38;12.30;;;17.70;99.90;;;;;;5063504;28;20047;-73
2023/09/08 06:20:48;;;;;;;13.95;11.90;;;18.30;99.90;;;;;;5065337;28;20098;-74
2023/09/08 06:23:14;;;;;;;12.55;10.95;;;19.20;99.90;;;;;;5066008;28;20106;-71
2023/09/08 06:25:40;;;;;;;12.10;10.60;;;20.10;99.90;;;;;;5066029;28;20098;-71
2023/09/08 06:28:06;;;;;;;12.57;10.38;;;20.90;99.90;;;;;;5061578;28;20104;-72
2023/09/08 06:30:32;;;;;;;11.27;9.60;;;21.40;99.90;;;;;;5040748;28;20041;-72
2023/09/08 06:32:58;;;;;;;11.43;9.68;;;22.10;99.90;;;;;;5040487;28;20485;-73
2023/09/08 06:35:25;;;;;;;13.15;9.40;;;22.30;99.90;;;;;;5055742;28;20033;-72
2023/09/08 06:37:51;;;;;;;13.32;9.63;;;22.70;99.90;;;;;;4969335;28;20485;-74
2023/09/08 06:40:17;;;;;;;11.65;9.00;;;22.70;99.90;;;;;;5032248;28;20052;-73
2023/09/08 06:42:43;;;;;;;12.85;9.27;;;23.00;99.90;;;;;;5035728;28;20049;-73
2023/09/08 06:45:09;;;;;;;12.38;8.45;;;23.10;99.90;;;;;;5046416;28;20033;-73
2023/09/08 06:47:35;;;;;;;11.70;8.73;;;23.30;99.90;;;;;;5019010;28;20096;-74
2023/09/08 06:50:00;;;;;;;11.73;9.40;;;23.30;99.90;;;;;;5035564;28;20489;-73
2023/09/08 06:52:26;;;;;;;10.77;8.70;;;23.60;99.90;;;;;;5035665;28;20037;-73
2023/09/08 06:54:52;;;;;;;12.68;9.23;;;23.90;99.90;;;;;;5021354;28;20128;-72
2023/09/08 06:57:21;;;;;;;12.18;8.52;;;24.00;99.90;;;;;;5039177;28;20048;-72
2023/09/08 06:59:47;;;;;;;10.07;8.27;;;24.30;99.90;;;;;;5036994;28;20068;-73
2023/09/08 07:02:13;;;;;;;10.52;8.57;;;24.70;99.90;;;;;;5053761;28;20038;-73
2023/09/08 07:04:39;;;;;;;11.63;8.50;;;24.70;99.90;;;;;;5037627;28;20052;-73
2023/09/08 07:07:07;;;;;;;10.07;7.82;;;24.70;99.90;;;;;;5039002;28;20037;-73
2023/09/08 07:09:35;;;;;;;11.68;8.18;;;24.60;99.90;;;;;;5021330;28;20513;-72
2023/09/08 07:12:05;;;;;;;10.65;7.90;;;24.40;99.90;;;;;;5036638;28;20041;-73
2023/09/08 07:14:31;;;;;;;10.80;7.72;;;24.20;99.90;;;;;;5035988;28;20041;-72
2023/09/08 07:16:57;;;;;;;9.93;8.18;;;24.40;99.90;;;;;;5035568;28;20045;-73
2023/09/08 07:19:23;;;;;;;11.00;8.05;;;24.30;99.90;;;;;;5034503;28;20037;-71
2023/09/08 07:21:49;;;;;;;9.65;7.60;;;24.40;99.90;;;;;;5033976;28;20033;-72
2023/09/08 07:24:15;;;;;;;9.48;8.02;;;24.40;99.90;;;;;;5033779;28;20041;-72
2023/09/08 07:26:41;;;;;;;11.13;8.15;;;24.40;99.90;;;;;;5016524;28;20057;-73
2023/09/08 07:29:07;;;;;;;11.50;7.32;;;24.60;99.90;;;;;;5033889;28;20149;-72
2023/09/08 07:31:33;;;;;;;8.77;7.05;;;24.40;99.70;;;;;;5017128;28;20478;-73
2023/09/08 07:33:59;;;;;;;9.13;7.60;;;24.50;99.90;;;;;;5033710;28;20386;-73
2023/09/08 07:36:24;;;;;;;9.82;7.22;;;24.30;99.90;;;;;;5017472;28;20175;-72
2023/09/08 07:38:50;;;;;;;8.93;7.03;;;24.20;99.90;;;;;;5033219;28;20060;-73
2023/09/08 07:41:16;;;;;;;8.90;6.68;;;24.10;99.90;;;;;;5033432;28;20046;-73
2023/09/08 07:43:44;;;;;;;12.52;7.10;;;23.90;99.90;;;;;;4976320;28;20104;-72
2023/09/08 07:46:10;;;;;;;9.68;7.10;;;23.80;99.90;;;;;;5025563;28;20041;-72
2023/09/08 07:48:35;;;;;;;11.05;6.38;;;23.60;99.90;;;;;;5033337;28;20159;-74
2023/09/08 07:51:01;;;;;;;8.32;6.53;;;23.50;99.90;;;;;;5033629;28;20076;-74
2023/09/08 07:53:27;;;;;;;7.97;6.88;;;23.50;99.90;;;;;;5033032;28;20055;-74
2023/09/08 07:55:53;;;;;;;8.65;6.10;;;23.40;99.90;;;;;;5032997;28;20083;-74
2023/09/08 07:58:19;;;;;;;8.75;6.82;;;23.40;99.90;;;;;;5032864;28;20073;-74
2023/09/08 08:00:45;;;;;;;9.98;6.50;;;23.40;99.90;;;;;;5033115;28;20041;-72
2023/09/08 08:03:10;;;;;;;9.05;6.25;;;23.50;99.90;;;;;;5032950;28;20037;-73
2023/09/08 08:05:36;;;;;;;8.05;6.18;;;23.50;99.90;;;;;;5016580;28;20131;-73
2023/09/08 08:08:02;;;;;;;9.23;6.10;;;23.60;99.90;;;;;;5032819;28;20045;-72
2023/09/08 08:10:28;;;;;;;7.93;5.85;;;23.80;99.90;;;;;;5034007;28;20038;-73
2023/09/08 08:12:54;;;;;;;8.65;5.97;;;23.90;99.90;;;;;;5032960;28;20131;-72
2023/09/08 08:15:21;;;;;;;8.38;5.32;;;23.90;99.90;;;;;;5032545;28;20528;-72
2023/09/08 08:17:47;;;;;;;10.57;5.35;;;24.20;99.90;;;;;;5032695;28;20034;-73
2023/09/08 08:20:17;;;;;;;8.05;5.18;;;24.20;99.90;;;;;;5032687;28;20068;-72
2023/09/08 08:22:46;;;;;;;10.00;5.43;;;24.40;99.90;;;;;;5032690;28;20051;-73
2023/09/08 08:25:12;;;;;;;8.32;5.30;;;24.50;99.90;;;;;;5033075;28;20037;-73
2023/09/08 08:27:40;;;;;;;9.13;5.15;;;24.80;99.90;;;;;;5033148;28;20505;-73
2023/09/08 08:30:07;;;;;;;8.05;5.07;;;25.00;99.90;;;;;;5032799;28;20036;-65
2023/09/08 08:32:34;;;;;;;8.25;5.35;;;25.10;98.80;;;;;;5033404;28;20056;-65
2023/09/08 08:35:00;;;;;;;7.78;5.00;;;25.10;98.30;;;;;;5032111;28;20077;-65
2023/09/08 08:37:25;;;;;;;8.77;5.10;;;25.30;98.30;;;;;;5032095;28;20453;-65
2023/09/08 08:39:52;;;;;;;7.97;5.13;;;25.50;99.40;;;;;;5046969;28;20045;-65
2023/09/08 08:42:22;;;;;;;10.50;5.03;;;25.70;99.20;;;;;;5035554;28;20080;-66
2023/09/08 08:44:57;;;;;;;7.38;5.00;;;26.10;98.80;;;;;;5035067;28;20045;-65
2023/09/08 08:47:25;;;;;;;9.00;4.90;;;26.30;96.50;;;;;;5035353;28;20052;-66
2023/09/08 08:49:52;;;;;;;7.70;4.68;;;26.40;96.80;;;;;;5035286;28;20055;-65
2023/09/08 08:52:18;;;;;;;9.13;4.65;;;26.40;97.10;;;;;;5034340;28;20079;-65
2023/09/08 08:54:45;;;;;;;7.60;4.70;;;26.60;97.50;;;;;;5035048;28;20041;-65
2023/09/08 08:57:11;;;;;;;7.60;4.70;;;26.80;95.60;;;;;;5035466;28;20464;-65
2023/09/08 08:59:37;;;;;;;7.93;4.55;;;26.90;94.30;;;;;;5018684;28;20091;-65
2023/09/08 09:02:04;;;;;;;8.77;4.50;;;27.00;95.90;;;;;;5035165;28;20077;-64
2023/09/08 09:04:31;;;;;;;10.02;4.40;;;27.00;94.60;;;;;;5035368;28;20498;-64
2023/09/08 09:06:58;;;;;;;11.52;4.70;;;27.10;95.30;;;;;;5035117;28;20094;-66
2023/09/08 09:09:26;;;;;;;8.63;4.78;;;27.30;94.80;;;;;;5035337;28;20045;-66
2023/09/08 09:11:52;;;;;;;7.47;4.80;;;27.30;93.50;;;;;;5035079;28;20116;-66
2023/09/08 09:14:22;;;;;;;7.78;4.82;;;27.30;93.60;;;;;;5034828;28;20473;-66
2023/09/08 09:16:51;;;;;;;8.07;4.47;;;27.30;92.70;;;;;;5036422;28;20078;-65
2023/09/08 09:19:27;;;;;;;8.68;4.70;;;27.40;94.30;;;;;;5035485;28;20457;-65
2023/09/08 09:21:54;;;;;;;7.95;4.32;;;27.50;92.90;;;;;;5035811;28;20044;-66
2023/09/08 09:24:36;;;;;;;9.10;4.80;;;27.60;93.90;;;;;;5018817;28;20048;-65
2023/09/08 09:27:06;;;;;;;6.82;4.45;;;27.80;93.40;;;;;;5034941;28;20052;-66
2023/09/08 09:29:33;;;;;;;6.95;4.45;;;27.90;93.20;;;;;;5035064;28;20045;-65
2023/09/08 09:32:07;;;;;;;9.82;4.65;;;28.00;91.40;;;;;;5034907;28;20083;-67
2023/09/08 09:34:46;;;;;;;6.75;4.32;;;28.10;93.30;;;;;;5034852;28;20612;-66
2023/09/08 09:37:13;;;;;;;9.05;4.57;;;28.20;92.00;;;;;;5035074;28;20041;-65
2023/09/08 09:39:38;;;;;;;6.95;4.35;;;28.30;92.90;;;;;;5031640;28;20099;-72
2023/09/08 09:42:04;;;;;;;6.97;4.50;;;28.50;92.80;;;;;;5031764;28;20045;-70
2023/09/08 09:44:30;;;;;;;6.70;4.50;;;28.50;92.50;;;;;;5031823;28;20049;-72
2023/09/08 09:47:04;;;;;;;7.97;4.63;;;28.70;92.60;;;;;;5033509;28;20394;-72
2023/09/08 09:49:31;;;;;;;7.50;4.50;;;28.90;92.20;;;;;;5016400;28;20120;-72
2023/09/08 09:51:58;;;;;;;8.23;4.20;;;29.10;92.50;;;;;;5031982;28;20046;-72
2023/09/08 09:54:24;;;;;;;6.40;4.18;;;29.20;92.00;;;;;;5032062;28;20075;-72
2023/09/08 09:56:51;;;;;;;8.85;4.30;;;29.30;91.10;;;;;;5032318;28;20046;-71
2023/09/08 09:59:17;;;;;;;7.75;4.35;;;29.40;91.10;;;;;;5015513;28;20053;-73
2023/09/08 10:01:44;;;;;;;6.45;4.15;;;29.50;90.80;;;;;;5031726;28;20072;-72
2023/09/08 10:04:15;;;;;;;6.72;4.13;;;29.60;90.50;;;;;;5016470;28;20176;-73
2023/09/08 10:06:40;;;;;;;;;;;29.70;90.30;;;;;;5035661;28;20094;-72
2023/09/08 10:09:13;;;;;;;6.55;4.05;;;29.80;88.80;;;;;;5018602;28;20004;-71
2023/09/08 10:11:54;;;;;;;8.45;4.13;;;29.80;86.20;;;;;;5019463;28;20052;-71
2023/09/08 10:14:22;;;;;;;6.13;3.97;;;29.90;84.60;;;;;;5034831;28;20080;-72
2023/09/08 10:16:52;;;;;;;7.13;4.03;;;29.90;85.50;;;;;;5034857;28;20049;-72
2023/09/08 10:19:19;;;;;;;7.40;4.28;;;29.90;84.80;;;;;;5035125;28;20048;-72
2023/09/08 10:21:51;;;;;;;9.23;4.20;;;30.00;84.00;;;;;;5035145;28;20037;-72
2023/09/08 10:24:29;;;;;;;5.90;3.75;;;30.00;83.30;;;;;;5034944;28;20493;-72
2023/09/08 10:27:07;;;;;;;8.73;4.15;;;30.00;84.00;;;;;;5034787;28;20046;-72
2023/09/08 10:29:34;;;;;;;6.85;4.10;;;30.10;82.60;;;;;;5034729;28;20052;-71
2023/09/08 10:32:00;;;;;;;7.78;4.43;;;30.20;79.50;;;;;;5001745;28;20073;-72
2023/09/08 10:34:27;;;;;;;6.68;4.00;;;30.10;78.70;;;;;;5034461;28;20042;-72
2023/09/08 10:36:53;;;;;;;8.70;4.20;;;30.00;78.40;;;;;;5034869;28;20425;-72
2023/09/08 10:39:39;;;;;;;8.18;4.22;;;29.90;80.00;;;;;;5034262;28;20124;-72
2023/09/08 10:42:18;;;;;;;7.00;4.18;;;29.90;79.60;;;;;;5018285;28;20517;-71
2023/09/08 10:44:55;;;;;;;7.40;4.30;;;29.80;80.20;;;;;;5034637;28;20048;-71
2023/09/08 10:47:41;;;;;;;7.30;4.35;;;29.80;79.10;;;;;;5035520;28;20045;-71
2023/09/08 10:50:08;;;;;;;6.13;4.00;;;29.70;78.00;;;;;;5034462;28;20049;-65
2023/09/08 10:52:35;;;;;;;8.63;4.20;;;29.70;79.20;;;;;;5034307;28;20048;-65
2023/09/08 10:55:01;;;;;;;6.88;4.20;;;29.60;80.90;;;;;;5034315;28;20052;-64
2023/09/08 10:57:27;;;;;;;6.00;4.03;;;29.70;82.10;;;;;;5050959;28;20038;-64
2023/09/08 10:59:55;;;;;;;6.85;4.10;;;29.80;79.10;;;;;;5034344;28;20041;-66
2023/09/08 11:02:38;;;;;;;7.63;4.30;;;29.90;80.30;;;;;;5033921;28;20063;-65
2023/09/08 11:05:09;;;;;;;7.28;4.47;;;29.90;78.60;;;;;;5017737;28;20048;-65
2023/09/08 11:07:39;;;;;;;6.53;4.13;;;29.90;76.60;;;;;;5033848;28;20119;-65
2023/09/08 11:10:06;;;;;;;7.22;4.47;;;29.80;77.00;;;;;;5050716;28;20048;-65
2023/09/08 11:12:32;;;;;;;6.93;4.57;;;29.90;77.90;;;;;;5033989;28;20038;-65
2023/09/08 11:15:03;;;;;;;7.15;4.30;;;29.90;77.30;;;;;;5016498;28;20091;-65
2023/09/08 11:17:30;;;;;;;7.25;4.50;;;29.90;79.20;;;;;;5033700;28;20056;-64
2023/09/08 11:19:56;;;;;;;8.02;4.45;;;30.00;77.90;;;;;;5033635;28;20045;-66
2023/09/08 11:22:24;;;;;;;7.93;4.40;;;30.10;77.40;;;;;;5033771;28;20550;-64
2023/09/08 11:24:51;;;;;;;7.55;4.30;;;30.10;76.10;;;;;;5033671;28;20041;-66
2023/09/08 11:27:18;;;;;;;7.22;4.07;;;30.00;76.40;;;;;;5033464;28;20119;-65
2023/09/08 11:29:44;;;;;;;6.60;3.95;;;29.90;77.90;;;;;;5033032;28;20052;-65
2023/09/08 11:32:11;;;;;;;7.35;4.30;;;30.00;77.10;;;;;;5033303;28;20124;-65
2023/09/08 11:34:37;;;;;;;7.03;4.00;;;30.00;78.70;;;;;;5033286;28;20179;-66
2023/09/08 11:37:15;;;;;;;7.07;4.07;;;30.10;78.50;;;;;;5033267;28;20069;-66
2023/09/08 11:39:42;;;;;;;7.22;4.18;;;30.20;75.80;;;;;;5049789;28;20049;-65
2023/09/08 11:42:15;;;;;;;6.93;4.20;;;30.30;75.60;;;;;;5033481;28;20088;-65
2023/09/08 11:44:42;;;;;;;6.78;4.15;;;30.20;78.20;;;;;;5000765;28;20481;-65
2023/09/08 11:47:09;;;;;;;9.05;4.13;;;30.20;77.80;;;;;;5049884;28;20045;-64
2023/09/08 11:49:36;;;;;;;7.10;4.35;;;30.20;78.10;;;;;;5033370;28;20047;-65
2023/09/08 11:52:06;;;;;;;8.07;4.32;;;30.20;78.30;;;;;;5033059;28;20049;-64
2023/09/08 11:54:33;;;;;;;7.82;4.15;;;30.20;78.80;;;;;;5032807;28;20124;-65
2023/09/08 11:57:04;;;;;;;7.85;4.18;;;30.30;77.50;;;;;;5032899;28;20047;-65
2023/09/08 11:59:35;;;;;;;7.18;4.00;;;30.40;79.40;;;;;;5032881;28;20076;-65
2023/09/08 12:02:01;;;;;;;;;;;30.50;76.80;;;;;;5033423;28;20076;-65
2023/09/08 12:04:28;;;;;;;7.00;4.18;;;30.40;75.90;;;;;;5032983;28;19964;-64
2023/09/08 12:06:57;;;;;;;9.25;4.10;;;30.40;74.70;;;;;;5032632;28;20042;-64
2023/09/08 12:09:23;;;;;;;7.45;4.28;;;30.40;78.40;;;;;;5032678;28;20041;-66
2023/09/08 12:11:49;;;;;;;6.47;4.10;;;30.40;76.50;;;;;;5032774;28;20045;-65
2023/09/08 12:14:16;;;;;;;6.95;4.03;;;30.40;77.60;;;;;;5033753;28;20076;-65
2023/09/08 12:16:45;;;;;;;6.53;4.20;;;30.30;77.80;;;;;;5032860;28;20476;-65
2023/09/08 12:19:33;;;;;;;7.00;4.20;;;30.40;77.90;;;;;;5032240;28;20040;-65
2023/09/08 12:22:04;;;;;;;7.10;4.10;;;30.40;76.80;;;;;;5032978;28;20038;-65
2023/09/08 12:24:57;;;;;;;7.07;4.18;;;30.50;75.30;;;;;;5033721;28;20472;-64
2023/09/08 12:27:23;;;;;;;7.88;4.00;;;30.40;73.80;;;;;;5033362;28;20038;-65
2023/09/08 12:30:08;;;;;;;7.80;4.22;;;30.40;76.20;;;;;;5032318;28;20077;-63
2023/09/08 12:32:34;;;;;;;6.68;4.43;;;30.40;75.60;;;;;;5032238;28;20048;-65
2023/09/08 12:35:03;;;;;;;7.88;4.05;;;30.40;76.80;;;;;;5032123;28;20120;-64
2023/09/08 12:37:30;;;;;;;12.45;5.25;;;30.40;77.40;;;;;;5033522;28;20072;-66
2023/09/08 12:39:56;;;;;;;14.80;5.00;;;30.40;77.00;;;;;;5032245;28;20107;-66
2023/09/08 12:42:25;;;;;;;7.25;4.30;;;30.50;74.80;;;;;;5033362;28;20092;-66